Gobblers Point, Arkansas
Current Conditions -  °F | °C
As of 3:53 PM on Thursday 23 Oct 2014 (Local Time) from KRUE Reporting Station
Clear Clear  
Wind Chill: 66°   Ceiling: Unl
Heat Index: 66°   Visibility: 10mi
Dew Point: 45°   Wind: 0mph
Humidity: 47%   Direction: NA
Pressure: 30.14"   Gusts: NA
Location:  35.3927°N, 92.8078°W
Report Text: KRUE 232053Z AUTO 00000KT 10SM CLR 19/07 A3014 RMK AO2 SLP201 T01890072 56018
Loading
Personal Weather Stations






























Interactive Weather Map
Tropical Storm Tracking
New forecast layout! Learn more

10-Day Weather Forecast

Advertisements
Track Severe Weather on mobile